TimeEDT,TemperatureF,Dew PointF,Humidity,Sea Level PressureIn,VisibilityMPH,Wind Direction,Wind SpeedMPH,Gust SpeedMPH,PrecipitationIn,Events,Conditions,WindDirDegrees,DateUTC
12:51 AM,68.0,64.9,90,29.76,7.0,SSE,3.5,-,0.01,,Scattered Clouds,150,2013-07-23 04:51:00
1:51 AM,68.0,64.0,87,29.76,8.0,Calm,Calm,-,N/A,,Overcast,0,2013-07-23 05:51:00
2:51 AM,66.9,64.9,93,29.75,7.0,Calm,Calm,-,N/A,,Mostly Cloudy,0,2013-07-23 06:51:00
3:51 AM,66.9,64.9,93,29.73,6.0,SSW,4.6,-,N/A,,Mostly Cloudy,210,2013-07-23 07:51:00
4:05 AM,66.2,64.4,94,29.75,6.0,Calm,Calm,-,N/A,,Overcast,0,2013-07-23 08:05:00
4:16 AM,68.0,64.4,88,29.74,6.0,SSE,3.5,-,N/A,,Overcast,160,2013-07-23 08:16:00
4:36 AM,68.0,64.4,88,29.74,6.0,Calm,Calm,-,N/A,,Mostly Cloudy,0,2013-07-23 08:36:00
4:51 AM,68.0,64.9,90,29.73,6.0,South,3.5,-,N/A,,Overcast,190,2013-07-23 08:51:00
5:26 AM,68.0,64.4,88,29.73,6.0,South,4.6,-,N/A,,Mostly Cloudy,190,2013-07-23 09:26:00
5:51 AM,66.9,64.9,93,29.73,5.0,Calm,Calm,-,N/A,,Overcast,0,2013-07-23 09:51:00
6:09 AM,66.2,64.4,94,29.74,4.0,South,3.5,-,N/A,,Mostly Cloudy,170,2013-07-23 10:09:00
6:51 AM,66.9,64.9,93,29.74,4.0,Calm,Calm,-,N/A,,Mostly Cloudy,0,2013-07-23 10:51:00
7:06 AM,66.2,64.4,94,29.75,4.0,South,3.5,-,N/A,,Partly Cloudy,190,2013-07-23 11:06:00
7:51 AM,70.0,66.9,90,29.76,6.0,SW,4.6,-,N/A,,Scattered Clouds,220,2013-07-23 11:51:00
8:08 AM,71.6,66.2,83,29.76,6.0,SSW,4.6,-,N/A,,Mostly Cloudy,210,2013-07-23 12:08:00
8:25 AM,71.6,68.0,88,29.76,7.0,SW,4.6,-,N/A,,Scattered Clouds,220,2013-07-23 12:25:00
8:51 AM,72.0,68.0,87,29.75,8.0,SSW,4.6,-,N/A,,Clear,200,2013-07-23 12:51:00
9:14 AM,73.4,68.0,83,29.75,9.0,SSW,6.9,-,N/A,,Partly Cloudy,210,2013-07-23 13:14:00
9:51 AM,75.0,66.9,76,29.73,10.0,West,5.8,-,N/A,,Scattered Clouds,260,2013-07-23 13:51:00
10:06 AM,75.2,66.2,73,29.74,10.0,WSW,8.1,-,N/A,,Mostly Cloudy,250,2013-07-23 14:06:00
10:23 AM,77.0,68.0,74,29.75,10.0,Variable,6.9,-,N/A,,Scattered Clouds,0,2013-07-23 14:23:00
10:31 AM,77.0,68.0,74,29.75,10.0,SW,6.9,-,N/A,,Mostly Cloudy,230,2013-07-23 14:31:00
10:47 AM,77.0,68.0,74,29.75,10.0,Variable,5.8,-,N/A,,Scattered Clouds,0,2013-07-23 14:47:00
10:51 AM,75.9,68.0,76,29.73,10.0,West,6.9,-,N/A,,Mostly Cloudy,270,2013-07-23 14:51:00
11:14 AM,77.0,69.8,78,29.74,10.0,WSW,11.5,17.3,N/A,,Mostly Cloudy,250,2013-07-23 15:14:00
11:51 AM,79.0,66.9,66,29.73,10.0,West,6.9,-,N/A,,Clear,260,2013-07-23 15:51:00
12:51 PM,80.1,66.9,64,29.72,10.0,West,9.2,-,N/A,,Clear,260,2013-07-23 16:51:00
1:51 PM,79.0,63.0,58,29.70,10.0,West,12.7,20.7,N/A,,Clear,260,2013-07-23 17:51:00
2:51 PM,80.1,66.9,64,29.68,10.0,SW,5.8,-,0.01,,Partly Cloudy,230,2013-07-23 18:51:00
3:51 PM,72.0,63.0,73,29.69,3.0,WNW,11.5,-,0.02,Rain,Rain,290,2013-07-23 19:51:00
4:04 PM,69.8,62.6,78,29.71,2.0,West,13.8,-,0.04,Rain,Heavy Rain,270,2013-07-23 20:04:00
4:20 PM,69.8,64.4,83,29.69,4.0,SW,5.8,18.4,0.07,Rain,Rain,220,2013-07-23 20:20:00
4:51 PM,69.1,64.9,87,29.68,8.0,South,6.9,-,0.09,Rain,Light Rain,190,2013-07-23 20:51:00
5:51 PM,71.1,64.9,81,29.68,10.0,SSW,9.2,-,0.00,,Scattered Clouds,200,2013-07-23 21:51:00
6:51 PM,75.0,64.9,71,29.65,10.0,SW,6.9,-,N/A,,Clear,230,2013-07-23 22:51:00
7:51 PM,73.0,66.0,79,29.67,10.0,Calm,Calm,-,N/A,,Scattered Clouds,0,2013-07-23 23:51:00
8:10 PM,73.4,66.2,78,29.69,10.0,South,4.6,-,N/A,,Mostly Cloudy,170,2013-07-24 00:10:00
8:35 PM,73.4,66.2,78,29.69,10.0,Calm,Calm,-,N/A,,Overcast,0,2013-07-24 00:35:00
8:43 PM,73.4,66.2,78,29.69,9.0,Calm,Calm,-,0.00,Rain,Light Rain,0,2013-07-24 00:43:00
8:51 PM,71.1,66.0,84,29.69,1.0,Calm,Calm,-,0.01,Rain,Heavy Rain,0,2013-07-24 00:51:00
8:53 PM,69.8,66.2,88,29.70,0.5,Calm,Calm,-,0.01,Fog-Rain,Heavy Rain,0,2013-07-24 00:53:00
9:06 PM,69.8,68.0,94,29.71,0.5,Variable,4.6,-,0.73,Fog-Rain,Heavy Rain,0,2013-07-24 01:06:00
9:10 PM,69.8,68.0,94,29.71,1.0,Variable,4.6,-,0.82,Rain,Heavy Rain,0,2013-07-24 01:10:00
9:14 PM,69.8,68.0,94,29.71,3.0,Variable,5.8,-,0.82,Rain,Light Rain,0,2013-07-24 01:14:00
9:38 PM,71.6,64.4,78,29.73,10.0,NNW,11.5,18.4,0.82,,Overcast,340,2013-07-24 01:38:00
9:51 PM,71.1,64.0,78,29.73,10.0,North,11.5,-,0.82,,Overcast,360,2013-07-24 01:51:00
10:51 PM,68.0,59.0,73,29.77,10.0,North,10.4,18.4,N/A,,Overcast,350,2013-07-24 02:51:00
11:49 PM,66.2,55.4,68,29.80,10.0,North,12.7,18.4,N/A,,Overcast,350,2013-07-24 03:49:00
11:51 PM,66.9,55.9,68,29.80,10.0,North,13.8,18.4,N/A,,Overcast,360,2013-07-24 03:51:00